Hope, Canada
Current Conditions -  °F | °C
As of 10:00 PM on Tuesday 21 Oct 2014 (Local Time) from CYHE Reporting Station
Broken Clouds Broken Clouds  
Wind Chill: 52°   Ceiling: 25000
Heat Index: 52°   Visibility: 9mi
Dew Point: 52°   Wind: 7mph
Humidity: 100%   Direction: 100°E
Pressure: 29.75"   Gusts: NA
Location:  49.36°N, 121.5°W
Report Text: CYHE 220500Z AUTO 10006KT 9SM FEW004 SCT080 SCT200 BKN250 11/11 A2975 RMK SLP073
Loading
Personal Weather Stations






























Interactive Weather Map New forecast layout! Learn more

10-Day Weather Forecast

Advertisements
Track Severe Weather on mobile